sensor_id;sensor_type;location;lat;lon;timestamp;P1;durP1;ratioP1;P2;durP2;ratioP2
25707;SDS011;13567;61.652;17.100;2022-10-16T00:01:13;10.63;;;4.37;;
25707;SDS011;13567;61.652;17.100;2022-10-16T00:03:42;10.83;;;4.30;;
25707;SDS011;13567;61.652;17.100;2022-10-16T00:06:10;12.77;;;4.17;;
25707;SDS011;13567;61.652;17.100;2022-10-16T00:08:38;12.83;;;4.37;;
25707;SDS011;13567;61.652;17.100;2022-10-16T00:11:06;11.70;;;4.60;;
25707;SDS011;13567;61.652;17.100;2022-10-16T00:13:37;14.97;;;5.77;;
25707;SDS011;13567;61.652;17.100;2022-10-16T00:16:06;12.07;;;4.60;;
25707;SDS011;13567;61.652;17.100;2022-10-16T00:18:34;12.40;;;4.40;;
25707;SDS011;13567;61.652;17.100;2022-10-16T00:21:14;12.70;;;4.23;;
25707;SDS011;13567;61.652;17.100;2022-10-16T00:23:43;12.03;;;4.20;;
25707;SDS011;13567;61.652;17.100;2022-10-16T00:26:11;12.33;;;4.40;;
25707;SDS011;13567;61.652;17.100;2022-10-16T00:28:41;10.67;;;3.57;;
25707;SDS011;13567;61.652;17.100;2022-10-16T00:31:09;12.63;;;4.50;;
25707;SDS011;13567;61.652;17.100;2022-10-16T00:33:38;9.83;;;4.07;;
25707;SDS011;13567;61.652;17.100;2022-10-16T00:36:06;11.27;;;4.50;;
25707;SDS011;13567;61.652;17.100;2022-10-16T00:38:35;10.87;;;3.87;;
25707;SDS011;13567;61.652;17.100;2022-10-16T00:41:04;9.93;;;4.10;;
25707;SDS011;13567;61.652;17.100;2022-10-16T00:43:40;10.90;;;3.83;;
25707;SDS011;13567;61.652;17.100;2022-10-16T00:48:52;10.57;;;3.93;;
25707;SDS011;13567;61.652;17.100;2022-10-16T00:51:23;9.63;;;3.70;;
25707;SDS011;13567;61.652;17.100;2022-10-16T00:53:54;11.13;;;3.50;;
25707;SDS011;13567;61.652;17.100;2022-10-16T00:56:21;9.03;;;3.57;;
25707;SDS011;13567;61.652;17.100;2022-10-16T00:58:49;10.27;;;3.90;;
25707;SDS011;13567;61.652;17.100;2022-10-16T01:01:15;10.57;;;3.97;;
25707;SDS011;13567;61.652;17.100;2022-10-16T01:03:43;11.97;;;3.80;;
25707;SDS011;13567;61.652;17.100;2022-10-16T01:06:21;9.07;;;3.77;;
25707;SDS011;13567;61.652;17.100;2022-10-16T01:14:17;10.87;;;3.80;;
25707;SDS011;13567;61.652;17.100;2022-10-16T01:17:06;9.23;;;3.83;;
25707;SDS011;13567;61.652;17.100;2022-10-16T01:19:51;8.73;;;3.33;;
25707;SDS011;13567;61.652;17.100;2022-10-16T01:22:48;10.97;;;3.90;;
25707;SDS011;13567;61.652;17.100;2022-10-16T01:25:36;10.07;;;3.83;;
25707;SDS011;13567;61.652;17.100;2022-10-16T01:28:27;9.63;;;3.57;;
25707;SDS011;13567;61.652;17.100;2022-10-16T01:30:59;10.13;;;3.60;;
25707;SDS011;13567;61.652;17.100;2022-10-16T01:33:28;8.63;;;3.40;;
25707;SDS011;13567;61.652;17.100;2022-10-16T01:36:03;9.73;;;3.30;;
25707;SDS011;13567;61.652;17.100;2022-10-16T01:38:37;11.33;;;3.87;;
25707;SDS011;13567;61.652;17.100;2022-10-16T01:46:32;15.87;;;4.57;;
25707;SDS011;13567;61.652;17.100;2022-10-16T01:49:02;21.00;;;5.73;;
25707;SDS011;13567;61.652;17.100;2022-10-16T01:51:29;14.43;;;5.37;;
25707;SDS011;13567;61.652;17.100;2022-10-16T01:53:57;14.73;;;5.07;;
25707;SDS011;13567;61.652;17.100;2022-10-16T01:56:27;13.50;;;5.20;;
25707;SDS011;13567;61.652;17.100;2022-10-16T01:58:58;15.10;;;5.03;;
25707;SDS011;13567;61.652;17.100;2022-10-16T02:01:31;20.33;;;5.63;;
25707;SDS011;13567;61.652;17.100;2022-10-16T02:04:03;18.77;;;5.70;;
25707;SDS011;13567;61.652;17.100;2022-10-16T02:06:36;17.20;;;5.17;;
25707;SDS011;13567;61.652;17.100;2022-10-16T02:09:04;24.47;;;5.47;;
25707;SDS011;13567;61.652;17.100;2022-10-16T02:11:31;24.20;;;7.43;;
25707;SDS011;13567;61.652;17.100;2022-10-16T02:14:04;24.93;;;6.47;;
25707;SDS011;13567;61.652;17.100;2022-10-16T02:16:34;17.17;;;5.93;;
25707;SDS011;13567;61.652;17.100;2022-10-16T02:19:03;15.70;;;5.77;;
25707;SDS011;13567;61.652;17.100;2022-10-16T02:21:38;22.17;;;6.80;;
25707;SDS011;13567;61.652;17.100;2022-10-16T02:27:03;17.10;;;5.60;;
25707;SDS011;13567;61.652;17.100;2022-10-16T02:29:37;20.20;;;6.40;;
25707;SDS011;13567;61.652;17.100;2022-10-16T02:32:11;26.10;;;6.27;;
25707;SDS011;13567;61.652;17.100;2022-10-16T02:34:41;21.60;;;6.70;;
25707;SDS011;13567;61.652;17.100;2022-10-16T02:37:10;22.20;;;7.03;;
25707;SDS011;13567;61.652;17.100;2022-10-16T02:39:38;25.17;;;6.77;;
25707;SDS011;13567;61.652;17.100;2022-10-16T02:42:10;19.40;;;6.60;;
25707;SDS011;13567;61.652;17.100;2022-10-16T02:44:39;18.40;;;5.57;;
25707;SDS011;13567;61.652;17.100;2022-10-16T02:47:06;21.23;;;6.57;;
25707;SDS011;13567;61.652;17.100;2022-10-16T02:49:33;17.23;;;5.77;;
25707;SDS011;13567;61.652;17.100;2022-10-16T02:52:00;20.50;;;6.60;;
25707;SDS011;13567;61.652;17.100;2022-10-16T02:54:27;21.00;;;6.37;;
25707;SDS011;13567;61.652;17.100;2022-10-16T02:56:54;22.23;;;6.73;;
25707;SDS011;13567;61.652;17.100;2022-10-16T02:59:21;16.43;;;5.93;;
25707;SDS011;13567;61.652;17.100;2022-10-16T03:01:54;18.87;;;6.73;;
25707;SDS011;13567;61.652;17.100;2022-10-16T03:04:20;12.47;;;5.03;;
25707;SDS011;13567;61.652;17.100;2022-10-16T03:06:47;20.47;;;5.77;;
25707;SDS011;13567;61.652;17.100;2022-10-16T03:09:15;17.43;;;5.17;;
25707;SDS011;13567;61.652;17.100;2022-10-16T03:11:42;17.00;;;5.17;;
25707;SDS011;13567;61.652;17.100;2022-10-16T03:14:09;17.27;;;5.70;;
25707;SDS011;13567;61.652;17.100;2022-10-16T03:16:36;16.63;;;6.00;;
25707;SDS011;13567;61.652;17.100;2022-10-16T03:19:03;17.43;;;5.57;;
25707;SDS011;13567;61.652;17.100;2022-10-16T03:21:30;16.03;;;6.13;;
25707;SDS011;13567;61.652;17.100;2022-10-16T03:23:57;18.47;;;6.93;;
25707;SDS011;13567;61.652;17.100;2022-10-16T03:26:24;14.93;;;4.97;;
25707;SDS011;13567;61.652;17.100;2022-10-16T03:28:51;10.53;;;4.03;;
25707;SDS011;13567;61.652;17.100;2022-10-16T03:31:18;11.50;;;4.30;;
25707;SDS011;13567;61.652;17.100;2022-10-16T03:33:45;12.53;;;4.10;;
25707;SDS011;13567;61.652;17.100;2022-10-16T03:36:12;9.13;;;3.10;;
25707;SDS011;13567;61.652;17.100;2022-10-16T03:38:39;9.37;;;3.60;;
25707;SDS011;13567;61.652;17.100;2022-10-16T03:41:06;13.00;;;4.57;;
25707;SDS011;13567;61.652;17.100;2022-10-16T03:43:34;12.40;;;4.60;;
25707;SDS011;13567;61.652;17.100;2022-10-16T03:46:01;11.93;;;4.30;;
25707;SDS011;13567;61.652;17.100;2022-10-16T03:48:28;16.10;;;6.00;;
25707;SDS011;13567;61.652;17.100;2022-10-16T03:50:55;21.23;;;7.33;;
25707;SDS011;13567;61.652;17.100;2022-10-16T03:53:22;17.77;;;7.10;;
25707;SDS011;13567;61.652;17.100;2022-10-16T03:55:49;19.60;;;8.07;;
25707;SDS011;13567;61.652;17.100;2022-10-16T03:58:16;21.20;;;8.77;;
25707;SDS011;13567;61.652;17.100;2022-10-16T04:00:44;19.20;;;8.67;;
25707;SDS011;13567;61.652;17.100;2022-10-16T04:03:12;19.17;;;8.00;;
25707;SDS011;13567;61.652;17.100;2022-10-16T04:05:39;18.47;;;7.97;;
25707;SDS011;13567;61.652;17.100;2022-10-16T04:08:09;18.93;;;7.67;;
25707;SDS011;13567;61.652;17.100;2022-10-16T04:10:36;15.63;;;7.13;;
25707;SDS011;13567;61.652;17.100;2022-10-16T04:13:03;16.90;;;7.43;;
25707;SDS011;13567;61.652;17.100;2022-10-16T04:15:30;16.23;;;7.50;;
25707;SDS011;13567;61.652;17.100;2022-10-16T04:17:57;17.03;;;7.67;;
25707;SDS011;13567;61.652;17.100;2022-10-16T04:20:24;18.73;;;7.97;;
25707;SDS011;13567;61.652;17.100;2022-10-16T04:22:51;34.53;;;16.73;;
25707;SDS011;13567;61.652;17.100;2022-10-16T04:25:18;66.00;;;34.47;;
25707;SDS011;13567;61.652;17.100;2022-10-16T04:27:45;87.77;;;42.40;;
25707;SDS011;13567;61.652;17.100;2022-10-16T04:30:12;58.67;;;30.10;;
25707;SDS011;13567;61.652;17.100;2022-10-16T04:32:39;104.67;;;53.67;;
25707;SDS011;13567;61.652;17.100;2022-10-16T04:35:06;127.53;;;64.10;;
25707;SDS011;13567;61.652;17.100;2022-10-16T04:37:34;132.07;;;62.83;;
25707;SDS011;13567;61.652;17.100;2022-10-16T04:40:01;98.53;;;50.53;;
25707;SDS011;13567;61.652;17.100;2022-10-16T04:42:28;115.83;;;57.70;;
25707;SDS011;13567;61.652;17.100;2022-10-16T04:44:55;87.13;;;44.93;;
25707;SDS011;13567;61.652;17.100;2022-10-16T04:47:22;110.83;;;56.53;;
25707;SDS011;13567;61.652;17.100;2022-10-16T04:49:50;86.17;;;47.03;;
25707;SDS011;13567;61.652;17.100;2022-10-16T04:52:17;71.67;;;39.73;;
25707;SDS011;13567;61.652;17.100;2022-10-16T04:54:45;51.13;;;27.40;;
25707;SDS011;13567;61.652;17.100;2022-10-16T04:57:12;123.10;;;69.43;;
25707;SDS011;13567;61.652;17.100;2022-10-16T04:59:39;85.27;;;44.93;;
25707;SDS011;13567;61.652;17.100;2022-10-16T05:02:06;84.80;;;50.27;;
25707;SDS011;13567;61.652;17.100;2022-10-16T05:04:33;66.77;;;37.13;;
25707;SDS011;13567;61.652;17.100;2022-10-16T05:07:00;64.30;;;37.20;;
25707;SDS011;13567;61.652;17.100;2022-10-16T05:09:27;29.50;;;15.97;;
25707;SDS011;13567;61.652;17.100;2022-10-16T05:11:54;22.57;;;12.33;;
25707;SDS011;13567;61.652;17.100;2022-10-16T05:14:21;21.63;;;10.87;;
25707;SDS011;13567;61.652;17.100;2022-10-16T05:16:48;21.87;;;10.30;;
25707;SDS011;13567;61.652;17.100;2022-10-16T05:19:15;23.47;;;10.30;;
25707;SDS011;13567;61.652;17.100;2022-10-16T05:21:57;30.00;;;11.90;;
25707;SDS011;13567;61.652;17.100;2022-10-16T05:24:25;30.33;;;12.07;;
25707;SDS011;13567;61.652;17.100;2022-10-16T05:26:52;31.50;;;12.30;;
25707;SDS011;13567;61.652;17.100;2022-10-16T05:29:19;34.10;;;11.40;;
25707;SDS011;13567;61.652;17.100;2022-10-16T05:31:49;91.20;;;18.77;;
25707;SDS011;13567;61.652;17.100;2022-10-16T05:34:18;48.70;;;13.73;;
25707;SDS011;13567;61.652;17.100;2022-10-16T05:36:45;42.20;;;14.05;;
25707;SDS011;13567;61.652;17.100;2022-10-16T05:39:13;35.33;;;12.97;;
25707;SDS011;13567;61.652;17.100;2022-10-16T05:41:40;27.63;;;11.37;;
25707;SDS011;13567;61.652;17.100;2022-10-16T05:44:07;26.70;;;11.40;;
25707;SDS011;13567;61.652;17.100;2022-10-16T05:46:34;24.27;;;10.70;;
25707;SDS011;13567;61.652;17.100;2022-10-16T05:49:02;23.37;;;10.80;;
25707;SDS011;13567;61.652;17.100;2022-10-16T05:51:29;27.27;;;12.17;;
25707;SDS011;13567;61.652;17.100;2022-10-16T05:53:56;46.97;;;21.40;;
25707;SDS011;13567;61.652;17.100;2022-10-16T05:56:23;31.00;;;15.30;;
25707;SDS011;13567;61.652;17.100;2022-10-16T05:58:50;21.37;;;9.83;;
25707;SDS011;13567;61.652;17.100;2022-10-16T06:01:17;23.23;;;10.40;;
25707;SDS011;13567;61.652;17.100;2022-10-16T06:03:47;19.13;;;9.57;;
25707;SDS011;13567;61.652;17.100;2022-10-16T06:06:15;20.13;;;9.57;;
25707;SDS011;13567;61.652;17.100;2022-10-16T06:08:44;24.03;;;12.57;;
25707;SDS011;13567;61.652;17.100;2022-10-16T06:11:14;24.70;;;12.33;;
25707;SDS011;13567;61.652;17.100;2022-10-16T06:13:48;20.90;;;11.03;;
25707;SDS011;13567;61.652;17.100;2022-10-16T06:16:16;19.40;;;9.70;;
25707;SDS011;13567;61.652;17.100;2022-10-16T06:18:43;16.50;;;7.70;;
25707;SDS011;13567;61.652;17.100;2022-10-16T06:21:17;14.87;;;6.77;;
25707;SDS011;13567;61.652;17.100;2022-10-16T06:23:46;13.53;;;5.93;;
25707;SDS011;13567;61.652;17.100;2022-10-16T06:26:14;14.20;;;6.43;;
25707;SDS011;13567;61.652;17.100;2022-10-16T06:28:43;12.73;;;5.77;;
25707;SDS011;13567;61.652;17.100;2022-10-16T06:31:11;14.33;;;5.87;;
25707;SDS011;13567;61.652;17.100;2022-10-16T06:33:39;13.60;;;5.50;;
25707;SDS011;13567;61.652;17.100;2022-10-16T06:36:08;13.53;;;5.17;;
25707;SDS011;13567;61.652;17.100;2022-10-16T06:38:41;12.98;;;4.63;;
25707;SDS011;13567;61.652;17.100;2022-10-16T06:41:09;12.63;;;4.25;;
25707;SDS011;13567;61.652;17.100;2022-10-16T06:43:38;9.50;;;3.70;;
25707;SDS011;13567;61.652;17.100;2022-10-16T06:46:06;10.30;;;3.80;;
25707;SDS011;13567;61.652;17.100;2022-10-16T06:48:35;10.98;;;3.97;;
25707;SDS011;13567;61.652;17.100;2022-10-16T06:51:03;10.93;;;4.25;;
25707;SDS011;13567;61.652;17.100;2022-10-16T06:53:33;10.60;;;3.58;;
25707;SDS011;13567;61.652;17.100;2022-10-16T06:56:15;14.70;;;5.65;;
25707;SDS011;13567;61.652;17.100;2022-10-16T06:58:44;12.85;;;6.20;;
25707;SDS011;13567;61.652;17.100;2022-10-16T07:01:11;14.00;;;7.72;;
25707;SDS011;13567;61.652;17.100;2022-10-16T07:03:40;15.82;;;8.55;;
25707;SDS011;13567;61.652;17.100;2022-10-16T07:06:09;13.93;;;6.93;;
25707;SDS011;13567;61.652;17.100;2022-10-16T07:08:38;14.32;;;7.63;;
25707;SDS011;13567;61.652;17.100;2022-10-16T07:11:08;16.15;;;6.78;;
25707;SDS011;13567;61.652;17.100;2022-10-16T07:13:37;11.90;;;4.18;;
25707;SDS011;13567;61.652;17.100;2022-10-16T07:16:05;10.40;;;2.53;;
25707;SDS011;13567;61.652;17.100;2022-10-16T07:18:40;6.50;;;2.10;;
25707;SDS011;13567;61.652;17.100;2022-10-16T07:21:11;7.53;;;2.10;;
25707;SDS011;13567;61.652;17.100;2022-10-16T07:23:38;6.47;;;2.35;;
25707;SDS011;13567;61.652;17.100;2022-10-16T07:26:06;10.15;;;2.55;;
25707;SDS011;13567;61.652;17.100;2022-10-16T07:28:33;8.43;;;2.53;;
25707;SDS011;13567;61.652;17.100;2022-10-16T07:31:01;8.20;;;2.10;;
25707;SDS011;13567;61.652;17.100;2022-10-16T07:33:31;5.97;;;1.58;;
25707;SDS011;13567;61.652;17.100;2022-10-16T07:35:58;5.53;;;1.67;;
25707;SDS011;13567;61.652;17.100;2022-10-16T07:38:25;6.28;;;1.88;;
25707;SDS011;13567;61.652;17.100;2022-10-16T07:40:59;9.93;;;2.42;;
25707;SDS011;13567;61.652;17.100;2022-10-16T07:43:27;8.75;;;2.10;;
25707;SDS011;13567;61.652;17.100;2022-10-16T07:45:55;8.73;;;2.00;;
25707;SDS011;13567;61.652;17.100;2022-10-16T07:48:27;7.38;;;2.17;;
25707;SDS011;13567;61.652;17.100;2022-10-16T07:50:58;8.55;;;2.08;;
25707;SDS011;13567;61.652;17.100;2022-10-16T07:53:26;11.55;;;3.15;;
25707;SDS011;13567;61.652;17.100;2022-10-16T07:56:00;10.38;;;4.50;;
25707;SDS011;13567;61.652;17.100;2022-10-16T07:58:29;13.90;;;4.45;;
25707;SDS011;13567;61.652;17.100;2022-10-16T08:00:56;12.30;;;4.25;;
25707;SDS011;13567;61.652;17.100;2022-10-16T08:03:24;14.38;;;4.30;;
25707;SDS011;13567;61.652;17.100;2022-10-16T08:05:52;11.40;;;3.92;;
25707;SDS011;13567;61.652;17.100;2022-10-16T08:08:19;13.95;;;6.30;;
25707;SDS011;13567;61.652;17.100;2022-10-16T08:10:46;14.55;;;6.68;;
25707;SDS011;13567;61.652;17.100;2022-10-16T08:13:13;11.55;;;4.20;;
25707;SDS011;13567;61.652;17.100;2022-10-16T08:15:42;8.30;;;2.40;;
25707;SDS011;13567;61.652;17.100;2022-10-16T08:18:10;13.10;;;3.08;;
25707;SDS011;13567;61.652;17.100;2022-10-16T08:20:39;10.80;;;2.38;;
25707;SDS011;13567;61.652;17.100;2022-10-16T08:23:07;11.93;;;2.38;;
25707;SDS011;13567;61.652;17.100;2022-10-16T08:25:35;10.55;;;2.05;;
25707;SDS011;13567;61.652;17.100;2022-10-16T08:28:03;8.88;;;1.58;;
25707;SDS011;13567;61.652;17.100;2022-10-16T08:30:32;9.27;;;1.95;;
25707;SDS011;13567;61.652;17.100;2022-10-16T08:33:00;8.95;;;2.17;;
25707;SDS011;13567;61.652;17.100;2022-10-16T08:35:27;9.45;;;2.20;;
25707;SDS011;13567;61.652;17.100;2022-10-16T08:37:55;6.97;;;2.20;;
25707;SDS011;13567;61.652;17.100;2022-10-16T08:40:26;7.40;;;2.25;;
25707;SDS011;13567;61.652;17.100;2022-10-16T08:48:47;12.20;;;2.65;;
25707;SDS011;13567;61.652;17.100;2022-10-16T08:51:35;9.13;;;1.98;;
25707;SDS011;13567;61.652;17.100;2022-10-16T08:56:47;6.38;;;1.40;;
25707;SDS011;13567;61.652;17.100;2022-10-16T08:59:14;7.70;;;1.77;;
25707;SDS011;13567;61.652;17.100;2022-10-16T09:01:46;6.57;;;1.55;;
25707;SDS011;13567;61.652;17.100;2022-10-16T09:17:54;6.32;;;0.95;;
25707;SDS011;13567;61.652;17.100;2022-10-16T09:21:09;4.07;;;1.20;;
25707;SDS011;13567;61.652;17.100;2022-10-16T09:23:26;9.65;;;2.40;;
25707;SDS011;13567;61.652;17.100;2022-10-16T09:25:55;7.57;;;1.45;;
25707;SDS011;13567;61.652;17.100;2022-10-16T09:28:23;11.30;;;1.58;;
25707;SDS011;13567;61.652;17.100;2022-10-16T09:30:51;4.43;;;1.15;;
25707;SDS011;13567;61.652;17.100;2022-10-16T09:33:19;4.68;;;1.13;;
25707;SDS011;13567;61.652;17.100;2022-10-16T09:35:50;4.88;;;0.80;;
25707;SDS011;13567;61.652;17.100;2022-10-16T09:40:55;5.07;;;1.25;;
25707;SDS011;13567;61.652;17.100;2022-10-16T09:46:08;6.32;;;1.38;;
25707;SDS011;13567;61.652;17.100;2022-10-16T09:48:55;6.63;;;1.10;;
25707;SDS011;13567;61.652;17.100;2022-10-16T09:51:28;7.72;;;1.38;;
25707;SDS011;13567;61.652;17.100;2022-10-16T09:56:37;4.70;;;1.33;;
25707;SDS011;13567;61.652;17.100;2022-10-16T09:59:11;4.85;;;1.27;;
25707;SDS011;13567;61.652;17.100;2022-10-16T10:01:41;6.38;;;1.25;;
25707;SDS011;13567;61.652;17.100;2022-10-16T10:04:12;5.85;;;1.30;;
25707;SDS011;13567;61.652;17.100;2022-10-16T10:06:43;7.70;;;1.65;;
25707;SDS011;13567;61.652;17.100;2022-10-16T10:09:17;5.88;;;1.00;;
25707;SDS011;13567;61.652;17.100;2022-10-16T10:11:52;6.50;;;1.55;;
25707;SDS011;13567;61.652;17.100;2022-10-16T10:16:52;3.90;;;1.10;;
25707;SDS011;13567;61.652;17.100;2022-10-16T10:19:29;5.95;;;1.40;;
25707;SDS011;13567;61.652;17.100;2022-10-16T10:21:58;7.53;;;1.27;;
25707;SDS011;13567;61.652;17.100;2022-10-16T10:24:25;4.95;;;1.00;;
25707;SDS011;13567;61.652;17.100;2022-10-16T10:32:29;5.55;;;1.10;;
25707;SDS011;13567;61.652;17.100;2022-10-16T10:35:16;7.38;;;1.42;;
25707;SDS011;13567;61.652;17.100;2022-10-16T10:40:56;7.68;;;1.45;;
25707;SDS011;13567;61.652;17.100;2022-10-16T10:46:17;10.00;;;1.50;;
25707;SDS011;13567;61.652;17.100;2022-10-16T10:49:13;8.35;;;1.00;;
25707;SDS011;13567;61.652;17.100;2022-10-16T10:52:01;4.78;;;1.13;;
25707;SDS011;13567;61.652;17.100;2022-10-16T10:54:36;4.80;;;1.15;;
25707;SDS011;13567;61.652;17.100;2022-10-16T11:08:18;6.78;;;1.40;;
25707;SDS011;13567;61.652;17.100;2022-10-16T11:11:00;8.07;;;1.20;;
25707;SDS011;13567;61.652;17.100;2022-10-16T11:16:31;7.45;;;1.27;;
25707;SDS011;13567;61.652;17.100;2022-10-16T11:21:54;8.50;;;1.65;;
25707;SDS011;13567;61.652;17.100;2022-10-16T11:27:14;10.18;;;1.75;;
25707;SDS011;13567;61.652;17.100;2022-10-16T11:29:49;7.30;;;1.20;;
25707;SDS011;13567;61.652;17.100;2022-10-16T11:32:28;7.00;;;1.45;;
25707;SDS011;13567;61.652;17.100;2022-10-16T11:35:02;5.30;;;0.93;;
25707;SDS011;13567;61.652;17.100;2022-10-16T11:37:38;5.00;;;1.05;;
25707;SDS011;13567;61.652;17.100;2022-10-16T11:40:28;7.35;;;1.30;;
25707;SDS011;13567;61.652;17.100;2022-10-16T11:45:54;9.43;;;1.73;;
25707;SDS011;13567;61.652;17.100;2022-10-16T11:48:31;9.32;;;1.42;;
25707;SDS011;13567;61.652;17.100;2022-10-16T11:51:07;6.35;;;1.70;;
25707;SDS011;13567;61.652;17.100;2022-10-16T11:53:53;8.20;;;1.80;;
25707;SDS011;13567;61.652;17.100;2022-10-16T11:56:27;7.68;;;1.65;;
25707;SDS011;13567;61.652;17.100;2022-10-16T11:59:04;6.70;;;1.60;;
25707;SDS011;13567;61.652;17.100;2022-10-16T12:07:54;6.50;;;1.17;;
25707;SDS011;13567;61.652;17.100;2022-10-16T12:10:35;4.93;;;1.20;;
25707;SDS011;13567;61.652;17.100;2022-10-16T12:13:05;10.23;;;2.03;;
25707;SDS011;13567;61.652;17.100;2022-10-16T12:15:51;8.60;;;1.98;;
25707;SDS011;13567;61.652;17.100;2022-10-16T12:18:24;9.57;;;1.42;;
25707;SDS011;13567;61.652;17.100;2022-10-16T12:20:58;6.38;;;1.58;;
25707;SDS011;13567;61.652;17.100;2022-10-16T12:23:38;9.35;;;1.60;;
25707;SDS011;13567;61.652;17.100;2022-10-16T12:26:13;8.02;;;1.38;;
25707;SDS011;13567;61.652;17.100;2022-10-16T12:28:49;7.22;;;1.40;;
25707;SDS011;13567;61.652;17.100;2022-10-16T12:31:18;8.43;;;1.58;;
25707;SDS011;13567;61.652;17.100;2022-10-16T12:36:48;7.28;;;1.50;;
25707;SDS011;13567;61.652;17.100;2022-10-16T12:39:22;8.75;;;1.50;;
25707;SDS011;13567;61.652;17.100;2022-10-16T12:42:00;12.57;;;1.65;;
25707;SDS011;13567;61.652;17.100;2022-10-16T12:44:33;8.18;;;1.40;;
25707;SDS011;13567;61.652;17.100;2022-10-16T12:47:02;5.28;;;1.20;;
25707;SDS011;13567;61.652;17.100;2022-10-16T12:49:30;6.47;;;1.65;;
25707;SDS011;13567;61.652;17.100;2022-10-16T12:52:02;6.47;;;1.50;;
25707;SDS011;13567;61.652;17.100;2022-10-16T12:54:31;5.88;;;1.55;;
25707;SDS011;13567;61.652;17.100;2022-10-16T13:02:36;8.25;;;2.05;;
25707;SDS011;13567;61.652;17.100;2022-10-16T13:10:25;9.88;;;1.80;;
25707;SDS011;13567;61.652;17.100;2022-10-16T13:26:22;7.53;;;1.50;;
25707;SDS011;13567;61.652;17.100;2022-10-16T13:29:01;9.63;;;1.75;;
25707;SDS011;13567;61.652;17.100;2022-10-16T13:31:28;7.50;;;1.73;;
25707;SDS011;13567;61.652;17.100;2022-10-16T13:33:57;8.43;;;1.95;;
25707;SDS011;13567;61.652;17.100;2022-10-16T13:36:28;10.18;;;2.60;;
25707;SDS011;13567;61.652;17.100;2022-10-16T13:39:10;6.55;;;1.55;;
25707;SDS011;13567;61.652;17.100;2022-10-16T13:41:57;9.95;;;1.85;;
25707;SDS011;13567;61.652;17.100;2022-10-16T13:44:31;11.30;;;1.92;;
25707;SDS011;13567;61.652;17.100;2022-10-16T13:47:10;9.20;;;1.77;;
25707;SDS011;13567;61.652;17.100;2022-10-16T13:49:45;9.45;;;1.90;;
25707;SDS011;13567;61.652;17.100;2022-10-16T13:52:17;10.85;;;1.67;;
25707;SDS011;13567;61.652;17.100;2022-10-16T13:54:45;12.23;;;2.67;;
25707;SDS011;13567;61.652;17.100;2022-10-16T13:57:16;7.90;;;1.80;;
25707;SDS011;13567;61.652;17.100;2022-10-16T13:59:58;4.97;;;1.45;;
25707;SDS011;13567;61.652;17.100;2022-10-16T14:02:27;11.52;;;2.13;;
25707;SDS011;13567;61.652;17.100;2022-10-16T14:04:56;10.75;;;1.92;;
25707;SDS011;13567;61.652;17.100;2022-10-16T14:07:28;7.28;;;1.60;;
25707;SDS011;13567;61.652;17.100;2022-10-16T14:10:02;10.38;;;1.98;;
25707;SDS011;13567;61.652;17.100;2022-10-16T14:12:34;9.15;;;1.98;;
25707;SDS011;13567;61.652;17.100;2022-10-16T14:15:01;12.02;;;2.17;;
25707;SDS011;13567;61.652;17.100;2022-10-16T14:17:29;12.32;;;2.08;;
25707;SDS011;13567;61.652;17.100;2022-10-16T14:19:59;6.68;;;1.90;;
25707;SDS011;13567;61.652;17.100;2022-10-16T14:22:33;8.98;;;2.40;;
25707;SDS011;13567;61.652;17.100;2022-10-16T14:30:34;11.13;;;2.33;;
25707;SDS011;13567;61.652;17.100;2022-10-16T14:33:03;13.18;;;3.03;;
25707;SDS011;13567;61.652;17.100;2022-10-16T14:35:34;11.95;;;2.53;;
25707;SDS011;13567;61.652;17.100;2022-10-16T14:38:05;11.00;;;2.35;;
25707;SDS011;13567;61.652;17.100;2022-10-16T14:40:46;10.68;;;2.85;;
25707;SDS011;13567;61.652;17.100;2022-10-16T14:43:16;9.52;;;2.42;;
25707;SDS011;13567;61.652;17.100;2022-10-16T14:46:06;14.32;;;2.45;;
25707;SDS011;13567;61.652;17.100;2022-10-16T14:48:41;11.23;;;2.88;;
25707;SDS011;13567;61.652;17.100;2022-10-16T14:51:16;8.90;;;2.47;;
25707;SDS011;13567;61.652;17.100;2022-10-16T14:53:45;13.38;;;2.05;;
25707;SDS011;13567;61.652;17.100;2022-10-16T14:56:16;12.27;;;2.45;;
25707;SDS011;13567;61.652;17.100;2022-10-16T14:58:46;12.15;;;2.75;;
25707;SDS011;13567;61.652;17.100;2022-10-16T15:01:14;14.90;;;4.93;;
25707;SDS011;13567;61.652;17.100;2022-10-16T15:03:41;19.08;;;5.07;;
25707;SDS011;13567;61.652;17.100;2022-10-16T15:06:11;20.45;;;4.88;;
25707;SDS011;13567;61.652;17.100;2022-10-16T15:08:42;12.55;;;3.20;;
25707;SDS011;13567;61.652;17.100;2022-10-16T15:11:13;11.88;;;3.33;;
25707;SDS011;13567;61.652;17.100;2022-10-16T15:13:45;12.25;;;3.20;;
25707;SDS011;13567;61.652;17.100;2022-10-16T15:16:15;11.05;;;3.40;;
25707;SDS011;13567;61.652;17.100;2022-10-16T15:18:43;10.75;;;3.28;;
25707;SDS011;13567;61.652;17.100;2022-10-16T15:21:20;11.93;;;3.25;;
25707;SDS011;13567;61.652;17.100;2022-10-16T15:23:52;12.32;;;2.95;;
25707;SDS011;13567;61.652;17.100;2022-10-16T15:26:19;13.90;;;3.17;;
25707;SDS011;13567;61.652;17.100;2022-10-16T15:28:46;21.45;;;7.32;;
25707;SDS011;13567;61.652;17.100;2022-10-16T15:31:14;17.88;;;6.28;;
25707;SDS011;13567;61.652;17.100;2022-10-16T15:33:41;31.30;;;14.82;;
25707;SDS011;13567;61.652;17.100;2022-10-16T15:36:08;34.75;;;17.52;;
25707;SDS011;13567;61.652;17.100;2022-10-16T15:38:35;46.50;;;22.73;;
25707;SDS011;13567;61.652;17.100;2022-10-16T15:41:02;25.10;;;9.38;;
25707;SDS011;13567;61.652;17.100;2022-10-16T15:43:29;14.65;;;4.78;;
25707;SDS011;13567;61.652;17.100;2022-10-16T15:46:03;13.50;;;3.45;;
25707;SDS011;13567;61.652;17.100;2022-10-16T15:48:32;10.98;;;3.00;;
25707;SDS011;13567;61.652;17.100;2022-10-16T15:50:59;11.60;;;3.40;;
25707;SDS011;13567;61.652;17.100;2022-10-16T15:53:30;11.75;;;3.08;;
25707;SDS011;13567;61.652;17.100;2022-10-16T15:55:57;16.23;;;5.10;;
25707;SDS011;13567;61.652;17.100;2022-10-16T15:58:27;11.07;;;3.78;;
25707;SDS011;13567;61.652;17.100;2022-10-16T16:00:58;19.80;;;8.20;;
25707;SDS011;13567;61.652;17.100;2022-10-16T16:03:30;22.53;;;6.23;;
25707;SDS011;13567;61.652;17.100;2022-10-16T16:05:58;15.57;;;4.77;;
25707;SDS011;13567;61.652;17.100;2022-10-16T16:08:29;11.63;;;2.97;;
25707;SDS011;13567;61.652;17.100;2022-10-16T16:10:57;10.97;;;3.13;;
25707;SDS011;13567;61.652;17.100;2022-10-16T16:13:28;15.30;;;3.63;;
25707;SDS011;13567;61.652;17.100;2022-10-16T16:15:56;98.03;;;48.03;;
25707;SDS011;13567;61.652;17.100;2022-10-16T16:18:23;16.77;;;4.77;;
25707;SDS011;13567;61.652;17.100;2022-10-16T16:20:50;18.53;;;6.70;;
25707;SDS011;13567;61.652;17.100;2022-10-16T16:23:18;13.10;;;4.60;;
25707;SDS011;13567;61.652;17.100;2022-10-16T16:26:01;14.87;;;3.80;;
25707;SDS011;13567;61.652;17.100;2022-10-16T16:28:33;14.90;;;3.50;;
25707;SDS011;13567;61.652;17.100;2022-10-16T16:31:00;14.40;;;3.00;;
25707;SDS011;13567;61.652;17.100;2022-10-16T16:33:27;14.17;;;3.90;;
25707;SDS011;13567;61.652;17.100;2022-10-16T16:35:58;18.70;;;5.57;;
25707;SDS011;13567;61.652;17.100;2022-10-16T16:38:26;82.67;;;42.87;;
25707;SDS011;13567;61.652;17.100;2022-10-16T16:40:54;39.33;;;21.97;;
25707;SDS011;13567;61.652;17.100;2022-10-16T16:43:23;17.70;;;5.93;;
25707;SDS011;13567;61.652;17.100;2022-10-16T16:45:54;23.30;;;7.93;;